sensor_id;sensor_type;location;lat;lon;timestamp;P1;durP1;ratioP1;P2;durP2;ratioP2
76155;SDS011;64906;51.290;7.348;2023-02-25T00:00:21;32.15;;;18.73;;
76155;SDS011;64906;51.290;7.348;2023-02-25T00:02:48;33.80;;;19.92;;
76155;SDS011;64906;51.290;7.348;2023-02-25T00:05:15;29.20;;;19.40;;
76155;SDS011;64906;51.290;7.348;2023-02-25T00:07:41;34.35;;;21.88;;
76155;SDS011;64906;51.290;7.348;2023-02-25T00:10:10;33.75;;;21.15;;
76155;SDS011;64906;51.290;7.348;2023-02-25T00:12:37;29.67;;;18.08;;
76155;SDS011;64906;51.290;7.348;2023-02-25T00:15:04;37.58;;;19.23;;
76155;SDS011;64906;51.290;7.348;2023-02-25T00:17:31;33.28;;;20.33;;
76155;SDS011;64906;51.290;7.348;2023-02-25T00:19:57;31.40;;;18.75;;
76155;SDS011;64906;51.290;7.348;2023-02-25T00:22:23;30.80;;;18.80;;
76155;SDS011;64906;51.290;7.348;2023-02-25T00:24:53;27.98;;;18.10;;
76155;SDS011;64906;51.290;7.348;2023-02-25T00:27:20;32.22;;;19.45;;
76155;SDS011;64906;51.290;7.348;2023-02-25T00:29:50;32.72;;;18.35;;
76155;SDS011;64906;51.290;7.348;2023-02-25T00:32:17;29.52;;;18.15;;
76155;SDS011;64906;51.290;7.348;2023-02-25T00:34:44;29.05;;;18.45;;
76155;SDS011;64906;51.290;7.348;2023-02-25T00:37:10;29.67;;;17.83;;
76155;SDS011;64906;51.290;7.348;2023-02-25T00:39:37;27.95;;;17.52;;
76155;SDS011;64906;51.290;7.348;2023-02-25T00:42:29;32.10;;;18.58;;
76155;SDS011;64906;51.290;7.348;2023-02-25T00:44:54;29.58;;;17.27;;
76155;SDS011;64906;51.290;7.348;2023-02-25T00:47:20;28.33;;;17.45;;
76155;SDS011;64906;51.290;7.348;2023-02-25T00:49:46;27.08;;;17.27;;
76155;SDS011;64906;51.290;7.348;2023-02-25T00:52:12;29.23;;;18.40;;
76155;SDS011;64906;51.290;7.348;2023-02-25T00:54:39;30.63;;;17.50;;
76155;SDS011;64906;51.290;7.348;2023-02-25T00:57:05;27.27;;;17.67;;
76155;SDS011;64906;51.290;7.348;2023-02-25T00:59:31;31.80;;;17.60;;
76155;SDS011;64906;51.290;7.348;2023-02-25T01:01:58;28.50;;;18.25;;
76155;SDS011;64906;51.290;7.348;2023-02-25T01:04:24;27.02;;;17.10;;
76155;SDS011;64906;51.290;7.348;2023-02-25T01:06:50;28.67;;;19.35;;
76155;SDS011;64906;51.290;7.348;2023-02-25T01:09:16;28.60;;;17.05;;
76155;SDS011;64906;51.290;7.348;2023-02-25T01:11:43;30.33;;;18.30;;
76155;SDS011;64906;51.290;7.348;2023-02-25T01:14:12;29.23;;;17.95;;
76155;SDS011;64906;51.290;7.348;2023-02-25T01:16:43;25.30;;;16.55;;
76155;SDS011;64906;51.290;7.348;2023-02-25T01:19:12;33.40;;;18.38;;
76155;SDS011;64906;51.290;7.348;2023-02-25T01:21:44;30.70;;;17.80;;
76155;SDS011;64906;51.290;7.348;2023-02-25T01:24:16;39.28;;;18.27;;
76155;SDS011;64906;51.290;7.348;2023-02-25T01:26:47;27.48;;;17.27;;
76155;SDS011;64906;51.290;7.348;2023-02-25T01:29:18;26.38;;;17.23;;
76155;SDS011;64906;51.290;7.348;2023-02-25T01:31:46;26.80;;;16.52;;
76155;SDS011;64906;51.290;7.348;2023-02-25T01:34:14;28.58;;;18.70;;
76155;SDS011;64906;51.290;7.348;2023-02-25T01:36:42;27.90;;;16.20;;
76155;SDS011;64906;51.290;7.348;2023-02-25T01:39:10;31.77;;;19.27;;
76155;SDS011;64906;51.290;7.348;2023-02-25T01:41:38;29.52;;;17.27;;
76155;SDS011;64906;51.290;7.348;2023-02-25T01:44:09;29.10;;;18.52;;
76155;SDS011;64906;51.290;7.348;2023-02-25T01:46:39;26.20;;;16.70;;
76155;SDS011;64906;51.290;7.348;2023-02-25T01:49:09;28.15;;;17.95;;
76155;SDS011;64906;51.290;7.348;2023-02-25T01:51:35;26.40;;;16.75;;
76155;SDS011;64906;51.290;7.348;2023-02-25T01:54:02;29.38;;;16.48;;
76155;SDS011;64906;51.290;7.348;2023-02-25T01:56:32;25.13;;;15.82;;
76155;SDS011;64906;51.290;7.348;2023-02-25T01:58:58;27.92;;;16.10;;
76155;SDS011;64906;51.290;7.348;2023-02-25T02:01:25;26.92;;;16.02;;
76155;SDS011;64906;51.290;7.348;2023-02-25T02:03:56;27.30;;;18.42;;
76155;SDS011;64906;51.290;7.348;2023-02-25T02:06:26;28.00;;;15.45;;
76155;SDS011;64906;51.290;7.348;2023-02-25T02:08:56;25.08;;;14.88;;
76155;SDS011;64906;51.290;7.348;2023-02-25T02:11:24;26.10;;;15.95;;
76155;SDS011;64906;51.290;7.348;2023-02-25T02:13:51;25.90;;;16.05;;
76155;SDS011;64906;51.290;7.348;2023-02-25T02:16:27;22.73;;;15.02;;
76155;SDS011;64906;51.290;7.348;2023-02-25T02:18:55;23.77;;;15.10;;
76155;SDS011;64906;51.290;7.348;2023-02-25T02:21:42;27.88;;;15.45;;
76155;SDS011;64906;51.290;7.348;2023-02-25T02:33:40;25.15;;;14.88;;
76155;SDS011;64906;51.290;7.348;2023-02-25T02:36:13;25.70;;;15.20;;
76155;SDS011;64906;51.290;7.348;2023-02-25T02:38:50;26.25;;;15.93;;
76155;SDS011;64906;51.290;7.348;2023-02-25T02:41:26;25.13;;;15.40;;
76155;SDS011;64906;51.290;7.348;2023-02-25T02:44:12;26.52;;;15.38;;
76155;SDS011;64906;51.290;7.348;2023-02-25T02:46:50;24.52;;;14.73;;
76155;SDS011;64906;51.290;7.348;2023-02-25T02:52:06;23.00;;;14.40;;
76155;SDS011;64906;51.290;7.348;2023-02-25T02:54:39;25.08;;;14.95;;
76155;SDS011;64906;51.290;7.348;2023-02-25T02:57:08;23.85;;;15.00;;
76155;SDS011;64906;51.290;7.348;2023-02-25T02:59:42;24.20;;;14.43;;
76155;SDS011;64906;51.290;7.348;2023-02-25T03:02:25;24.25;;;14.32;;
76155;SDS011;64906;51.290;7.348;2023-02-25T03:04:59;22.80;;;13.88;;
76155;SDS011;64906;51.290;7.348;2023-02-25T03:07:35;24.35;;;16.10;;
76155;SDS011;64906;51.290;7.348;2023-02-25T03:10:07;21.77;;;14.27;;
76155;SDS011;64906;51.290;7.348;2023-02-25T03:12:37;24.33;;;16.00;;
76155;SDS011;64906;51.290;7.348;2023-02-25T03:15:04;24.48;;;14.48;;
76155;SDS011;64906;51.290;7.348;2023-02-25T03:17:32;22.80;;;15.40;;
76155;SDS011;64906;51.290;7.348;2023-02-25T03:20:09;22.75;;;14.43;;
76155;SDS011;64906;51.290;7.348;2023-02-25T03:22:42;23.13;;;14.43;;
76155;SDS011;64906;51.290;7.348;2023-02-25T03:25:19;21.17;;;14.07;;
76155;SDS011;64906;51.290;7.348;2023-02-25T03:28:04;21.88;;;13.50;;
76155;SDS011;64906;51.290;7.348;2023-02-25T03:30:46;23.67;;;14.10;;
76155;SDS011;64906;51.290;7.348;2023-02-25T03:33:58;21.70;;;13.43;;
76155;SDS011;64906;51.290;7.348;2023-02-25T03:36:32;20.85;;;13.45;;
76155;SDS011;64906;51.290;7.348;2023-02-25T03:39:04;23.98;;;13.90;;
76155;SDS011;64906;51.290;7.348;2023-02-25T03:41:35;25.80;;;14.90;;
76155;SDS011;64906;51.290;7.348;2023-02-25T03:44:05;23.77;;;13.60;;
76155;SDS011;64906;51.290;7.348;2023-02-25T03:46:36;24.38;;;13.43;;
76155;SDS011;64906;51.290;7.348;2023-02-25T03:49:04;20.85;;;13.02;;
76155;SDS011;64906;51.290;7.348;2023-02-25T03:51:33;22.35;;;13.30;;
76155;SDS011;64906;51.290;7.348;2023-02-25T03:54:02;23.25;;;13.32;;
76155;SDS011;64906;51.290;7.348;2023-02-25T03:56:29;21.20;;;12.52;;
76155;SDS011;64906;51.290;7.348;2023-02-25T03:58:55;21.40;;;13.57;;
76155;SDS011;64906;51.290;7.348;2023-02-25T04:01:26;21.88;;;13.27;;
76155;SDS011;64906;51.290;7.348;2023-02-25T04:03:55;22.67;;;13.82;;
76155;SDS011;64906;51.290;7.348;2023-02-25T04:06:22;20.05;;;12.10;;
76155;SDS011;64906;51.290;7.348;2023-02-25T04:08:48;20.98;;;12.73;;
76155;SDS011;64906;51.290;7.348;2023-02-25T04:11:14;21.00;;;13.13;;
76155;SDS011;64906;51.290;7.348;2023-02-25T04:13:40;21.15;;;13.15;;
76155;SDS011;64906;51.290;7.348;2023-02-25T04:16:06;23.40;;;13.57;;
76155;SDS011;64906;51.290;7.348;2023-02-25T04:18:32;19.77;;;12.27;;
76155;SDS011;64906;51.290;7.348;2023-02-25T04:21:03;22.38;;;14.50;;
76155;SDS011;64906;51.290;7.348;2023-02-25T04:23:30;20.95;;;12.70;;
76155;SDS011;64906;51.290;7.348;2023-02-25T04:25:57;19.67;;;12.23;;
76155;SDS011;64906;51.290;7.348;2023-02-25T04:28:22;20.42;;;11.82;;
76155;SDS011;64906;51.290;7.348;2023-02-25T04:30:48;19.88;;;13.23;;
76155;SDS011;64906;51.290;7.348;2023-02-25T04:33:14;21.85;;;12.88;;
76155;SDS011;64906;51.290;7.348;2023-02-25T04:35:40;19.95;;;12.57;;
76155;SDS011;64906;51.290;7.348;2023-02-25T04:38:06;21.83;;;12.70;;
76155;SDS011;64906;51.290;7.348;2023-02-25T04:40:32;18.75;;;11.73;;
76155;SDS011;64906;51.290;7.348;2023-02-25T04:42:58;19.45;;;11.63;;
76155;SDS011;64906;51.290;7.348;2023-02-25T04:45:25;20.35;;;12.60;;
76155;SDS011;64906;51.290;7.348;2023-02-25T04:47:54;19.27;;;11.95;;
76155;SDS011;64906;51.290;7.348;2023-02-25T04:50:24;21.02;;;12.75;;
76155;SDS011;64906;51.290;7.348;2023-02-25T04:52:50;19.30;;;12.35;;
76155;SDS011;64906;51.290;7.348;2023-02-25T04:55:16;20.45;;;11.95;;
76155;SDS011;64906;51.290;7.348;2023-02-25T04:57:43;18.77;;;11.45;;
76155;SDS011;64906;51.290;7.348;2023-02-25T05:00:11;21.50;;;12.38;;
76155;SDS011;64906;51.290;7.348;2023-02-25T05:02:43;19.63;;;11.82;;
76155;SDS011;64906;51.290;7.348;2023-02-25T05:05:10;19.50;;;13.32;;
76155;SDS011;64906;51.290;7.348;2023-02-25T05:07:37;19.15;;;12.32;;
76155;SDS011;64906;51.290;7.348;2023-02-25T05:10:03;23.92;;;13.00;;
76155;SDS011;64906;51.290;7.348;2023-02-25T05:12:31;20.30;;;11.68;;
76155;SDS011;64906;51.290;7.348;2023-02-25T05:14:58;18.40;;;11.48;;
76155;SDS011;64906;51.290;7.348;2023-02-25T05:17:24;18.27;;;11.98;;
76155;SDS011;64906;51.290;7.348;2023-02-25T05:19:50;20.05;;;11.27;;
76155;SDS011;64906;51.290;7.348;2023-02-25T05:22:15;20.50;;;12.00;;
76155;SDS011;64906;51.290;7.348;2023-02-25T05:24:41;19.13;;;11.48;;
76155;SDS011;64906;51.290;7.348;2023-02-25T05:27:07;18.25;;;11.60;;
76155;SDS011;64906;51.290;7.348;2023-02-25T05:29:34;18.00;;;11.48;;
76155;SDS011;64906;51.290;7.348;2023-02-25T05:32:00;18.88;;;11.00;;
76155;SDS011;64906;51.290;7.348;2023-02-25T05:34:27;20.33;;;13.30;;
76155;SDS011;64906;51.290;7.348;2023-02-25T05:36:53;19.05;;;11.20;;
76155;SDS011;64906;51.290;7.348;2023-02-25T05:39:18;18.25;;;11.10;;
76155;SDS011;64906;51.290;7.348;2023-02-25T05:41:44;18.63;;;11.18;;
76155;SDS011;64906;51.290;7.348;2023-02-25T05:44:13;20.52;;;11.68;;
76155;SDS011;64906;51.290;7.348;2023-02-25T05:46:39;18.13;;;11.30;;
76155;SDS011;64906;51.290;7.348;2023-02-25T05:49:04;17.58;;;10.77;;
76155;SDS011;64906;51.290;7.348;2023-02-25T05:51:30;20.15;;;11.52;;
76155;SDS011;64906;51.290;7.348;2023-02-25T05:53:56;19.98;;;12.93;;
76155;SDS011;64906;51.290;7.348;2023-02-25T05:56:23;17.55;;;10.55;;
76155;SDS011;64906;51.290;7.348;2023-02-25T05:58:52;17.80;;;10.68;;
76155;SDS011;64906;51.290;7.348;2023-02-25T06:01:20;18.50;;;11.02;;
76155;SDS011;64906;51.290;7.348;2023-02-25T06:03:48;17.33;;;10.77;;
76155;SDS011;64906;51.290;7.348;2023-02-25T06:06:17;16.65;;;10.68;;
76155;SDS011;64906;51.290;7.348;2023-02-25T06:08:49;15.23;;;10.45;;
76155;SDS011;64906;51.290;7.348;2023-02-25T06:11:17;17.88;;;10.38;;
76155;SDS011;64906;51.290;7.348;2023-02-25T06:13:48;19.13;;;11.25;;
76155;SDS011;64906;51.290;7.348;2023-02-25T06:16:18;17.92;;;10.80;;
76155;SDS011;64906;51.290;7.348;2023-02-25T06:18:45;17.38;;;10.70;;
76155;SDS011;64906;51.290;7.348;2023-02-25T06:21:14;17.60;;;9.82;;
76155;SDS011;64906;51.290;7.348;2023-02-25T06:23:42;18.80;;;10.80;;
76155;SDS011;64906;51.290;7.348;2023-02-25T06:26:10;17.38;;;11.02;;
76155;SDS011;64906;51.290;7.348;2023-02-25T06:28:38;17.35;;;10.70;;
76155;SDS011;64906;51.290;7.348;2023-02-25T06:31:07;17.52;;;10.77;;
76155;SDS011;64906;51.290;7.348;2023-02-25T06:33:35;16.88;;;10.57;;
76155;SDS011;64906;51.290;7.348;2023-02-25T06:36:02;16.35;;;9.98;;
76155;SDS011;64906;51.290;7.348;2023-02-25T06:38:29;18.08;;;10.18;;
76155;SDS011;64906;51.290;7.348;2023-02-25T06:40:56;17.25;;;11.02;;
76155;SDS011;64906;51.290;7.348;2023-02-25T06:43:23;17.02;;;10.27;;
76155;SDS011;64906;51.290;7.348;2023-02-25T06:45:49;17.08;;;10.18;;
76155;SDS011;64906;51.290;7.348;2023-02-25T06:48:16;17.08;;;10.10;;
76155;SDS011;64906;51.290;7.348;2023-02-25T06:50:42;17.05;;;10.00;;
76155;SDS011;64906;51.290;7.348;2023-02-25T06:53:08;17.55;;;10.05;;
76155;SDS011;64906;51.290;7.348;2023-02-25T06:55:36;18.02;;;10.38;;
76155;SDS011;64906;51.290;7.348;2023-02-25T06:58:03;18.58;;;10.65;;
76155;SDS011;64906;51.290;7.348;2023-02-25T07:00:29;15.57;;;9.77;;
76155;SDS011;64906;51.290;7.348;2023-02-25T07:02:58;15.85;;;9.77;;
76155;SDS011;64906;51.290;7.348;2023-02-25T07:05:27;16.88;;;9.85;;
76155;SDS011;64906;51.290;7.348;2023-02-25T07:07:53;17.15;;;10.02;;
76155;SDS011;64906;51.290;7.348;2023-02-25T07:10:19;15.25;;;10.05;;
76155;SDS011;64906;51.290;7.348;2023-02-25T07:12:45;15.27;;;9.05;;
76155;SDS011;64906;51.290;7.348;2023-02-25T07:15:11;15.35;;;10.30;;
76155;SDS011;64906;51.290;7.348;2023-02-25T07:17:36;17.38;;;11.18;;
76155;SDS011;64906;51.290;7.348;2023-02-25T07:20:02;14.45;;;9.00;;
76155;SDS011;64906;51.290;7.348;2023-02-25T07:22:28;16.42;;;11.15;;
76155;SDS011;64906;51.290;7.348;2023-02-25T07:24:54;14.13;;;8.95;;
76155;SDS011;64906;51.290;7.348;2023-02-25T07:27:20;14.20;;;9.52;;
76155;SDS011;64906;51.290;7.348;2023-02-25T07:29:46;15.80;;;10.02;;
76155;SDS011;64906;51.290;7.348;2023-02-25T07:32:12;16.75;;;9.95;;
76155;SDS011;64906;51.290;7.348;2023-02-25T07:34:38;14.35;;;9.50;;
76155;SDS011;64906;51.290;7.348;2023-02-25T07:37:05;17.13;;;10.80;;
76155;SDS011;64906;51.290;7.348;2023-02-25T07:39:31;16.60;;;9.80;;
76155;SDS011;64906;51.290;7.348;2023-02-25T07:41:57;16.35;;;10.02;;
76155;SDS011;64906;51.290;7.348;2023-02-25T07:44:23;16.75;;;9.45;;
76155;SDS011;64906;51.290;7.348;2023-02-25T07:46:49;17.08;;;9.70;;
76155;SDS011;64906;51.290;7.348;2023-02-25T07:49:15;17.13;;;9.95;;
76155;SDS011;64906;51.290;7.348;2023-02-25T07:51:42;14.80;;;9.00;;
76155;SDS011;64906;51.290;7.348;2023-02-25T07:54:08;16.20;;;9.38;;
76155;SDS011;64906;51.290;7.348;2023-02-25T07:56:34;14.55;;;9.20;;
76155;SDS011;64906;51.290;7.348;2023-02-25T07:59:00;17.55;;;10.88;;
76155;SDS011;64906;51.290;7.348;2023-02-25T08:01:28;18.00;;;10.20;;
76155;SDS011;64906;51.290;7.348;2023-02-25T08:03:58;15.57;;;8.88;;
76155;SDS011;64906;51.290;7.348;2023-02-25T08:06:29;15.20;;;9.50;;
76155;SDS011;64906;51.290;7.348;2023-02-25T08:08:55;16.15;;;9.82;;
76155;SDS011;64906;51.290;7.348;2023-02-25T08:11:22;14.63;;;8.90;;
76155;SDS011;64906;51.290;7.348;2023-02-25T08:13:50;16.48;;;9.35;;
76155;SDS011;64906;51.290;7.348;2023-02-25T08:16:17;17.05;;;9.30;;
76155;SDS011;64906;51.290;7.348;2023-02-25T08:18:44;16.70;;;10.15;;
76155;SDS011;64906;51.290;7.348;2023-02-25T08:21:14;14.90;;;9.30;;
76155;SDS011;64906;51.290;7.348;2023-02-25T08:23:46;15.55;;;9.10;;
76155;SDS011;64906;51.290;7.348;2023-02-25T08:26:16;14.18;;;8.68;;
76155;SDS011;64906;51.290;7.348;2023-02-25T08:28:45;15.63;;;9.23;;
76155;SDS011;64906;51.290;7.348;2023-02-25T08:31:11;15.52;;;9.35;;
76155;SDS011;64906;51.290;7.348;2023-02-25T08:33:38;14.57;;;9.25;;
76155;SDS011;64906;51.290;7.348;2023-02-25T08:36:09;15.52;;;8.52;;
76155;SDS011;64906;51.290;7.348;2023-02-25T08:38:40;14.98;;;9.40;;
76155;SDS011;64906;51.290;7.348;2023-02-25T08:41:07;14.75;;;8.70;;
76155;SDS011;64906;51.290;7.348;2023-02-25T08:43:33;18.10;;;10.90;;
76155;SDS011;64906;51.290;7.348;2023-02-25T08:46:00;16.35;;;9.80;;
76155;SDS011;64906;51.290;7.348;2023-02-25T08:48:26;18.63;;;10.65;;
76155;SDS011;64906;51.290;7.348;2023-02-25T08:50:52;22.67;;;12.50;;
76155;SDS011;64906;51.290;7.348;2023-02-25T08:53:20;19.92;;;12.43;;
76155;SDS011;64906;51.290;7.348;2023-02-25T08:55:47;23.08;;;14.15;;
76155;SDS011;64906;51.290;7.348;2023-02-25T08:58:15;23.13;;;13.65;;
76155;SDS011;64906;51.290;7.348;2023-02-25T09:00:40;25.52;;;15.98;;
76155;SDS011;64906;51.290;7.348;2023-02-25T09:03:06;34.92;;;18.25;;
76155;SDS011;64906;51.290;7.348;2023-02-25T09:05:33;33.45;;;18.42;;
76155;SDS011;64906;51.290;7.348;2023-02-25T09:07:59;35.75;;;20.17;;
76155;SDS011;64906;51.290;7.348;2023-02-25T09:10:24;35.47;;;21.65;;
76155;SDS011;64906;51.290;7.348;2023-02-25T09:12:50;39.72;;;22.42;;
76155;SDS011;64906;51.290;7.348;2023-02-25T09:15:17;42.65;;;24.73;;
76155;SDS011;64906;51.290;7.348;2023-02-25T09:17:46;42.75;;;25.13;;
76155;SDS011;64906;51.290;7.348;2023-02-25T09:20:12;49.47;;;24.27;;
76155;SDS011;64906;51.290;7.348;2023-02-25T09:22:38;45.50;;;26.00;;
76155;SDS011;64906;51.290;7.348;2023-02-25T09:25:05;45.65;;;25.52;;
76155;SDS011;64906;51.290;7.348;2023-02-25T09:27:31;51.65;;;29.77;;
76155;SDS011;64906;51.290;7.348;2023-02-25T09:29:57;42.15;;;24.83;;
76155;SDS011;64906;51.290;7.348;2023-02-25T09:32:23;44.40;;;25.48;;
76155;SDS011;64906;51.290;7.348;2023-02-25T09:34:49;44.20;;;24.77;;
76155;SDS011;64906;51.290;7.348;2023-02-25T09:37:16;46.90;;;25.73;;
76155;SDS011;64906;51.290;7.348;2023-02-25T09:39:44;43.33;;;23.23;;
76155;SDS011;64906;51.290;7.348;2023-02-25T09:42:18;44.80;;;24.77;;
76155;SDS011;64906;51.290;7.348;2023-02-25T09:44:50;39.60;;;23.90;;
76155;SDS011;64906;51.290;7.348;2023-02-25T09:52:35;41.53;;;22.60;;
76155;SDS011;64906;51.290;7.348;2023-02-25T09:55:17;41.97;;;24.67;;
76155;SDS011;64906;51.290;7.348;2023-02-25T10:00:48;38.30;;;21.85;;
76155;SDS011;64906;51.290;7.348;2023-02-25T10:03:22;38.88;;;19.95;;
76155;SDS011;64906;51.290;7.348;2023-02-25T10:08:32;37.88;;;20.23;;
76155;SDS011;64906;51.290;7.348;2023-02-25T10:14:22;33.28;;;19.98;;
76155;SDS011;64906;51.290;7.348;2023-02-25T10:17:09;38.72;;;21.10;;
76155;SDS011;64906;51.290;7.348;2023-02-25T10:19:54;34.53;;;19.42;;
76155;SDS011;64906;51.290;7.348;2023-02-25T10:25:26;31.70;;;17.30;;
76155;SDS011;64906;51.290;7.348;2023-02-25T10:28:00;32.42;;;18.27;;
76155;SDS011;64906;51.290;7.348;2023-02-25T10:33:30;27.95;;;15.77;;
76155;SDS011;64906;51.290;7.348;2023-02-25T10:36:12;26.60;;;16.70;;
76155;SDS011;64906;51.290;7.348;2023-02-25T10:38:42;28.92;;;16.25;;
76155;SDS011;64906;51.290;7.348;2023-02-25T10:41:10;31.92;;;15.65;;
76155;SDS011;64906;51.290;7.348;2023-02-25T10:43:37;27.88;;;14.77;;
76155;SDS011;64906;51.290;7.348;2023-02-25T10:46:05;25.02;;;15.25;;
76155;SDS011;64906;51.290;7.348;2023-02-25T10:48:34;30.25;;;15.85;;
76155;SDS011;64906;51.290;7.348;2023-02-25T10:51:02;36.03;;;19.33;;
76155;SDS011;64906;51.290;7.348;2023-02-25T10:53:30;33.47;;;19.02;;
76155;SDS011;64906;51.290;7.348;2023-02-25T10:55:58;38.92;;;20.52;;
76155;SDS011;64906;51.290;7.348;2023-02-25T10:58:36;46.70;;;23.58;;
76155;SDS011;64906;51.290;7.348;2023-02-25T11:01:08;43.70;;;24.17;;
76155;SDS011;64906;51.290;7.348;2023-02-25T11:03:59;43.03;;;24.63;;
76155;SDS011;64906;51.290;7.348;2023-02-25T11:06:36;48.47;;;26.30;;
76155;SDS011;64906;51.290;7.348;2023-02-25T11:09:25;43.13;;;26.15;;
76155;SDS011;64906;51.290;7.348;2023-02-25T11:14:30;49.42;;;26.65;;
76155;SDS011;64906;51.290;7.348;2023-02-25T11:17:15;46.92;;;25.15;;
76155;SDS011;64906;51.290;7.348;2023-02-25T11:19:48;49.08;;;25.67;;
76155;SDS011;64906;51.290;7.348;2023-02-25T11:22:19;46.42;;;26.48;;
76155;SDS011;64906;51.290;7.348;2023-02-25T11:24:53;51.72;;;29.35;;
76155;SDS011;64906;51.290;7.348;2023-02-25T11:27:34;44.72;;;25.70;;
76155;SDS011;64906;51.290;7.348;2023-02-25T11:30:31;44.38;;;23.80;;
76155;SDS011;64906;51.290;7.348;2023-02-25T11:32:54;41.65;;;23.33;;
76155;SDS011;64906;51.290;7.348;2023-02-25T11:35:40;41.35;;;23.33;;
76155;SDS011;64906;51.290;7.348;2023-02-25T11:38:22;41.83;;;22.58;;
76155;SDS011;64906;51.290;7.348;2023-02-25T11:40:51;35.10;;;21.15;;
76155;SDS011;64906;51.290;7.348;2023-02-25T11:43:22;38.38;;;20.95;;
76155;SDS011;64906;51.290;7.348;2023-02-25T11:45:58;42.47;;;22.30;;
76155;SDS011;64906;51.290;7.348;2023-02-25T11:48:27;37.80;;;19.80;;
76155;SDS011;64906;51.290;7.348;2023-02-25T11:59:23;32.95;;;17.45;;
76155;SDS011;64906;51.290;7.348;2023-02-25T12:13:08;31.77;;;15.68;;
76155;SDS011;64906;51.290;7.348;2023-02-25T12:26:51;26.80;;;13.00;;
76155;SDS011;64906;51.290;7.348;2023-02-25T12:32:27;22.17;;;12.35;;
76155;SDS011;64906;51.290;7.348;2023-02-25T12:38:18;30.20;;;13.95;;
76155;SDS011;64906;51.290;7.348;2023-02-25T12:44:16;26.00;;;13.88;;
76155;SDS011;64906;51.290;7.348;2023-02-25T12:49:33;27.48;;;14.23;;
76155;SDS011;64906;51.290;7.348;2023-02-25T13:00:22;26.30;;;12.60;;
76155;SDS011;64906;51.290;7.348;2023-02-25T13:03:24;30.58;;;15.13;;
76155;SDS011;64906;51.290;7.348;2023-02-25T13:06:22;27.23;;;14.30;;
76155;SDS011;64906;51.290;7.348;2023-02-25T13:15:17;22.45;;;11.23;;
76155;SDS011;64906;51.290;7.348;2023-02-25T13:23:32;21.02;;;7.75;;
76155;SDS011;64906;51.290;7.348;2023-02-25T13:32:12;16.38;;;5.82;;
76155;SDS011;64906;51.290;7.348;2023-02-25T13:37:53;12.95;;;3.90;;
76155;SDS011;64906;51.290;7.348;2023-02-25T13:41:05;22.42;;;10.35;;
76155;SDS011;64906;51.290;7.348;2023-02-25T13:51:22;23.88;;;11.02;;
76155;SDS011;64906;51.290;7.348;2023-02-25T13:56:55;26.25;;;12.25;;
76155;SDS011;64906;51.290;7.348;2023-02-25T13:59:42;25.15;;;11.15;;
76155;SDS011;64906;51.290;7.348;2023-02-25T14:02:19;20.52;;;10.98;;
76155;SDS011;64906;51.290;7.348;2023-02-25T14:15:34;19.88;;;10.15;;
76155;SDS011;64906;51.290;7.348;2023-02-25T14:23:25;20.08;;;9.48;;
76155;SDS011;64906;51.290;7.348;2023-02-25T14:37:21;22.38;;;11.63;;
76155;SDS011;64906;51.290;7.348;2023-02-25T14:50:38;20.58;;;11.35;;
76155;SDS011;64906;51.290;7.348;2023-02-25T15:06:59;23.02;;;11.38;;
76155;SDS011;64906;51.290;7.348;2023-02-25T15:09:40;19.75;;;9.77;;
76155;SDS011;64906;51.290;7.348;2023-02-25T15:20:36;21.77;;;10.77;;
76155;SDS011;64906;51.290;7.348;2023-02-25T15:23:08;18.30;;;9.38;;
76155;SDS011;64906;51.290;7.348;2023-02-25T15:25:40;16.90;;;9.18;;
76155;SDS011;64906;51.290;7.348;2023-02-25T15:38:43;18.95;;;9.25;;
76155;SDS011;64906;51.290;7.348;2023-02-25T15:44:51;17.52;;;8.57;;
76155;SDS011;64906;51.290;7.348;2023-02-25T15:46:47;17.63;;;8.57;;
76155;SDS011;64906;51.290;7.348;2023-02-25T15:49:27;17.77;;;10.00;;
76155;SDS011;64906;51.290;7.348;2023-02-25T15:51:58;16.90;;;9.52;;
76155;SDS011;64906;51.290;7.348;2023-02-25T15:56:52;16.98;;;8.45;;
76155;SDS011;64906;51.290;7.348;2023-02-25T16:05:01;17.70;;;8.52;;
76155;SDS011;64906;51.290;7.348;2023-02-25T16:07:33;16.27;;;8.00;;
76155;SDS011;64906;51.290;7.348;2023-02-25T16:10:04;14.77;;;7.88;;
76155;SDS011;64906;51.290;7.348;2023-02-25T16:12:52;15.57;;;7.72;;
76155;SDS011;64906;51.290;7.348;2023-02-25T16:15:26;17.02;;;8.18;;
76155;SDS011;64906;51.290;7.348;2023-02-25T16:17:55;15.18;;;7.25;;
76155;SDS011;64906;51.290;7.348;2023-02-25T16:20:32;17.02;;;8.18;;
76155;SDS011;64906;51.290;7.348;2023-02-25T16:23:12;15.68;;;7.13;;
76155;SDS011;64906;51.290;7.348;2023-02-25T16:28:31;15.77;;;6.95;;
76155;SDS011;64906;51.290;7.348;2023-02-25T16:31:48;16.13;;;7.30;;
76155;SDS011;64906;51.290;7.348;2023-02-25T16:34:19;14.50;;;7.13;;
76155;SDS011;64906;51.290;7.348;2023-02-25T16:37:11;16.77;;;7.30;;
76155;SDS011;64906;51.290;7.348;2023-02-25T16:39:51;15.00;;;6.70;;
76155;SDS011;64906;51.290;7.348;2023-02-25T16:42:17;12.40;;;6.63;;
76155;SDS011;64906;51.290;7.348;2023-02-25T16:45:52;13.88;;;7.53;;
76155;SDS011;64906;51.290;7.348;2023-02-25T16:48:20;14.95;;;6.35;;
76155;SDS011;64906;51.290;7.348;2023-02-25T16:50:51;12.82;;;6.30;;
76155;SDS011;64906;51.290;7.348;2023-02-25T16:53:22;15.00;;;6.80;;
76155;SDS011;64906;51.290;7.348;2023-02-25T16:55:56;13.85;;;6.30;;
76155;SDS011;64906;51.290;7.348;2023-02-25T16:58:25;12.45;;;6.57;;
76155;SDS011;64906;51.290;7.348;2023-02-25T17:00:54;15.38;;;6.55;;
76155;SDS011;64906;51.290;7.348;2023-02-25T17:03:29;14.55;;;5.80;;
76155;SDS011;64906;51.290;7.348;2023-02-25T17:06:14;13.98;;;6.35;;
76155;SDS011;64906;51.290;7.348;2023-02-25T17:08:45;12.65;;;6.53;;
76155;SDS011;64906;51.290;7.348;2023-02-25T17:13:47;10.75;;;5.65;;
76155;SDS011;64906;51.290;7.348;2023-02-25T17:16:29;14.55;;;6.32;;
76155;SDS011;64906;51.290;7.348;2023-02-25T17:19:01;12.57;;;6.40;;
76155;SDS011;64906;51.290;7.348;2023-02-25T17:21:31;12.07;;;5.65;;
76155;SDS011;64906;51.290;7.348;2023-02-25T17:24:00;13.95;;;6.00;;
76155;SDS011;64906;51.290;7.348;2023-02-25T17:26:29;13.10;;;6.18;;
76155;SDS011;64906;51.290;7.348;2023-02-25T17:28:56;13.15;;;5.70;;
76155;SDS011;64906;51.290;7.348;2023-02-25T17:31:25;14.27;;;5.70;;
76155;SDS011;64906;51.290;7.348;2023-02-25T17:33:54;12.35;;;5.32;;
76155;SDS011;64906;51.290;7.348;2023-02-25T17:36:26;9.77;;;5.03;;
76155;SDS011;64906;51.290;7.348;2023-02-25T17:38:56;12.77;;;5.40;;
76155;SDS011;64906;51.290;7.348;2023-02-25T17:41:25;10.80;;;5.97;;
76155;SDS011;64906;51.290;7.348;2023-02-25T17:43:51;10.35;;;4.85;;
76155;SDS011;64906;51.290;7.348;2023-02-25T17:46:28;10.85;;;5.30;;
76155;SDS011;64906;51.290;7.348;2023-02-25T17:49:20;12.00;;;6.30;;
76155;SDS011;64906;51.290;7.348;2023-02-25T17:51:52;14.15;;;5.25;;
76155;SDS011;64906;51.290;7.348;2023-02-25T17:54:21;12.05;;;5.43;;
76155;SDS011;64906;51.290;7.348;2023-02-25T17:56:59;13.23;;;4.85;;
76155;SDS011;64906;51.290;7.348;2023-02-25T17:59:41;12.20;;;5.93;;
76155;SDS011;64906;51.290;7.348;2023-02-25T18:07:37;11.10;;;5.25;;
76155;SDS011;64906;51.290;7.348;2023-02-25T18:10:04;11.15;;;5.05;;
76155;SDS011;64906;51.290;7.348;2023-02-25T18:12:47;12.38;;;5.15;;
76155;SDS011;64906;51.290;7.348;2023-02-25T18:15:15;9.15;;;5.25;;
76155;SDS011;64906;51.290;7.348;2023-02-25T18:17:46;11.90;;;5.35;;